Seaforth, Canada
Current Conditions -  °F | °C
As of 7:00 PM on Monday 24 Nov 2014 (Local Time) from CYXU Reporting Station
Overcast Overcast  
Wind Chill: 28°   Ceiling: 2000
Heat Index: 39°   Visibility: 15mi
Dew Point: 34°   Wind: 25mph
Humidity: 81%   Direction: 220°SW
Pressure: 29.52"   Gusts: 39mph
Location:  43.55°N, 81.38°W
Report Text: CYXU 250000Z 22022G34KT 15SM OVC020 04/01 A2952 RMK SC8 PRESRR SLP001
Loading
Personal Weather Stations






























Interactive Weather Map New forecast layout! Learn more

10-Day Weather Forecast

Advertisements
Track Severe Weather on mobile